createdAt,value
2018-12-27T00:00:38.243Z,36.20
2018-12-27T00:01:38.227Z,35.90
2018-12-27T00:02:38.209Z,36.20
2018-12-27T00:03:38.191Z,36.90
2018-12-27T00:04:38.177Z,38.10
2018-12-27T00:05:38.156Z,38.00
2018-12-27T00:06:38.142Z,36.90
2018-12-27T00:07:38.124Z,37.90
2018-12-27T00:08:38.110Z,35.80
2018-12-27T00:09:38.092Z,36.50
2018-12-27T00:10:38.075Z,35.30
2018-12-27T00:11:38.058Z,35.50
2018-12-27T00:12:38.040Z,34.30
2018-12-27T00:13:38.025Z,36.90
2018-12-27T00:14:38.008Z,35.80
2018-12-27T00:15:37.991Z,34.70
2018-12-27T00:16:37.974Z,34.30
2018-12-27T00:17:37.955Z,34.60
2018-12-27T00:18:37.940Z,34.00
2018-12-27T00:19:37.925Z,33.50
2018-12-27T00:20:37.906Z,36.00
2018-12-27T00:21:37.887Z,35.10
2018-12-27T00:22:37.872Z,34.00
2018-12-27T00:23:37.855Z,34.60
2018-12-27T00:24:37.851Z,35.40
2018-12-27T00:25:37.821Z,35.70
2018-12-27T00:26:37.808Z,34.00
2018-12-27T00:27:37.791Z,32.00
2018-12-27T00:28:37.770Z,34.50
2018-12-27T00:29:37.754Z,33.20
2018-12-27T00:30:37.739Z,34.20
2018-12-27T00:31:37.720Z,33.30
2018-12-27T00:32:37.705Z,34.20
2018-12-27T00:33:37.687Z,36.30
2018-12-27T00:34:37.670Z,33.80
2018-12-27T00:35:37.652Z,33.80
2018-12-27T00:36:37.634Z,32.90
2018-12-27T00:37:37.618Z,31.60
2018-12-27T00:38:37.603Z,30.10
2018-12-27T00:39:37.584Z,32.10
2018-12-27T00:40:37.568Z,31.80
2018-12-27T00:41:37.552Z,32.20
2018-12-27T00:42:37.535Z,32.20
2018-12-27T00:43:37.517Z,33.50
2018-12-27T00:44:37.502Z,33.70
2018-12-27T00:45:37.482Z,31.50
2018-12-27T00:46:37.467Z,32.20
2018-12-27T00:47:37.450Z,32.70
2018-12-27T00:48:37.432Z,33.30
2018-12-27T00:49:37.416Z,34.20
2018-12-27T00:50:37.399Z,34.10
2018-12-27T00:51:37.382Z,31.90
2018-12-27T00:52:37.366Z,34.50
2018-12-27T00:53:37.346Z,35.20
2018-12-27T00:54:37.332Z,35.80
2018-12-27T00:55:37.312Z,35.80
2018-12-27T00:56:37.296Z,35.50
2018-12-27T00:57:37.280Z,36.30
2018-12-27T00:58:37.263Z,36.90
2018-12-27T00:59:37.245Z,35.80
2018-12-27T01:00:37.227Z,36.20
2018-12-27T01:01:37.212Z,36.70
2018-12-27T01:02:37.196Z,39.60
2018-12-27T01:03:37.181Z,35.70
2018-12-27T01:04:37.160Z,38.60
2018-12-27T01:05:37.144Z,37.10
2018-12-27T01:06:37.131Z,39.80
2018-12-27T01:07:37.109Z,39.90
2018-12-27T01:08:37.091Z,35.90
2018-12-27T01:09:37.074Z,38.60
2018-12-27T01:10:37.058Z,35.50
2018-12-27T01:11:37.039Z,37.40
2018-12-27T01:12:37.021Z,38.90
2018-12-27T01:13:37.004Z,35.50
2018-12-27T01:14:36.990Z,38.70
2018-12-27T01:15:36.970Z,38.10
2018-12-27T01:16:37.022Z,37.20
2018-12-27T01:17:36.941Z,39.10
2018-12-27T01:18:36.926Z,36.00
2018-12-27T01:19:36.905Z,39.60
2018-12-27T01:20:36.885Z,37.40
2018-12-27T01:21:36.869Z,36.30
2018-12-27T01:22:36.852Z,37.10
2018-12-27T01:23:36.832Z,37.40
2018-12-27T01:24:36.815Z,37.70
2018-12-27T01:25:36.797Z,38.90
2018-12-27T01:26:36.782Z,36.50
2018-12-27T01:27:36.761Z,38.10
2018-12-27T01:28:36.745Z,36.10
2018-12-27T01:29:36.729Z,39.80
2018-12-27T01:30:36.712Z,39.50
2018-12-27T01:31:36.695Z,36.50
2018-12-27T01:32:36.676Z,36.40
2018-12-27T01:33:36.659Z,36.20
2018-12-27T01:34:36.642Z,37.50
2018-12-27T01:35:36.627Z,38.30
2018-12-27T01:36:36.607Z,35.90
2018-12-27T01:37:36.588Z,38.80
2018-12-27T01:38:36.572Z,37.90
2018-12-27T01:39:36.555Z,38.80
2018-12-27T01:40:36.537Z,38.30
2018-12-27T01:41:36.522Z,36.50
2018-12-27T01:42:36.505Z,37.00
2018-12-27T01:43:36.485Z,37.20
2018-12-27T01:44:36.470Z,39.70
2018-12-27T01:45:36.452Z,36.10
2018-12-27T01:46:36.436Z,40.40
2018-12-27T01:47:36.416Z,39.50
2018-12-27T01:48:36.400Z,37.80
2018-12-27T01:49:36.386Z,36.60
2018-12-27T01:50:36.365Z,39.10
2018-12-27T01:51:36.348Z,38.00
2018-12-27T01:52:36.330Z,39.10
2018-12-27T01:53:36.313Z,41.10
2018-12-27T01:54:36.299Z,40.10
2018-12-27T01:55:36.278Z,37.90
2018-12-27T01:56:36.261Z,36.40
2018-12-27T01:57:36.244Z,38.00
2018-12-27T01:58:36.228Z,36.80
2018-12-27T01:59:36.209Z,38.10
2018-12-27T02:00:36.192Z,39.00
2018-12-27T02:01:36.178Z,39.80
2018-12-27T02:02:36.160Z,39.30
2018-12-27T02:03:36.140Z,36.40
2018-12-27T02:04:36.123Z,40.00
2018-12-27T02:05:36.108Z,43.10
2018-12-27T02:06:36.089Z,38.30
2018-12-27T02:07:36.075Z,39.70
2018-12-27T02:08:36.056Z,38.00
2018-12-27T02:09:36.041Z,35.10
2018-12-27T02:10:36.020Z,36.50
2018-12-27T02:11:36.001Z,35.80
2018-12-27T02:12:35.984Z,37.40
2018-12-27T02:13:35.966Z,36.10
2018-12-27T02:14:35.950Z,35.70
2018-12-27T02:15:35.932Z,39.70
2018-12-27T02:16:35.913Z,37.40
2018-12-27T02:17:35.898Z,37.80
2018-12-27T02:18:35.880Z,38.40
2018-12-27T02:19:35.862Z,37.20
2018-12-27T02:20:35.844Z,37.00
2018-12-27T02:21:35.828Z,37.30
2018-12-27T02:22:35.814Z,37.00
2018-12-27T02:23:35.797Z,38.50
2018-12-27T02:24:35.778Z,38.00
2018-12-27T02:25:35.758Z,36.10
2018-12-27T02:26:35.741Z,37.90
2018-12-27T02:27:35.793Z,34.30
2018-12-27T02:28:35.704Z,37.10
2018-12-27T02:29:35.690Z,36.30
2018-12-27T02:30:35.674Z,34.60
2018-12-27T02:31:37.176Z,32.80
2018-12-27T02:32:35.637Z,32.00
2018-12-27T02:33:35.848Z,35.50
2018-12-27T02:34:35.602Z,34.10
2018-12-27T02:35:35.586Z,31.90
2018-12-27T02:36:35.565Z,33.80
2018-12-27T02:37:35.553Z,32.00
2018-12-27T02:38:35.530Z,35.30
2018-12-27T02:39:35.511Z,33.90
2018-12-27T02:40:35.494Z,36.30
2018-12-27T02:41:35.478Z,35.80
2018-12-27T02:42:35.469Z,36.60
2018-12-27T02:43:35.446Z,39.50
2018-12-27T02:44:35.425Z,35.20
2018-12-27T02:45:35.411Z,35.50
2018-12-27T02:46:35.392Z,38.10
2018-12-27T02:47:35.374Z,38.20
2018-12-27T02:48:35.357Z,38.10
2018-12-27T02:49:35.343Z,37.80
2018-12-27T02:50:35.321Z,40.70
2018-12-27T02:51:35.303Z,37.10
2018-12-27T02:52:35.288Z,40.00
2018-12-27T02:53:35.271Z,39.90
2018-12-27T02:54:35.254Z,38.30
2018-12-27T02:55:35.233Z,39.00
2018-12-27T02:56:35.217Z,38.10
2018-12-27T02:57:35.200Z,39.70
2018-12-27T02:58:35.184Z,39.30
2018-12-27T02:59:35.164Z,38.30
2018-12-27T03:00:35.147Z,37.50
2018-12-27T03:01:35.137Z,37.90
2018-12-27T03:02:35.112Z,35.70
2018-12-27T03:03:35.095Z,34.50
2018-12-27T03:04:35.079Z,34.80
2018-12-27T03:05:35.059Z,36.60
2018-12-27T03:06:35.048Z,35.40
2018-12-27T03:07:35.025Z,34.90
2018-12-27T03:08:35.009Z,34.80
2018-12-27T03:09:34.991Z,34.90
2018-12-27T03:10:34.975Z,35.30
2018-12-27T03:11:34.957Z,38.00
2018-12-27T03:12:34.938Z,37.80
2018-12-27T03:13:34.924Z,36.90
2018-12-27T03:14:34.905Z,37.80
2018-12-27T03:15:34.885Z,39.70
2018-12-27T03:16:34.871Z,39.90
2018-12-27T03:17:34.850Z,41.80
2018-12-27T03:18:34.836Z,38.50
2018-12-27T03:19:34.817Z,38.90
2018-12-27T03:20:34.800Z,39.90
2018-12-27T03:21:34.782Z,37.70
2018-12-27T03:22:34.766Z,36.80
2018-12-27T03:23:34.752Z,37.50
2018-12-27T03:24:34.732Z,39.40
2018-12-27T03:25:34.715Z,40.20
2018-12-27T03:26:34.697Z,41.50
2018-12-27T03:27:34.679Z,39.60
2018-12-27T03:28:34.748Z,41.70
2018-12-27T03:29:34.645Z,41.50
2018-12-27T03:30:34.632Z,39.50
2018-12-27T03:31:34.610Z,38.40
2018-12-27T03:32:34.594Z,36.70
2018-12-27T03:33:34.575Z,41.10
2018-12-27T03:34:34.562Z,39.70
2018-12-27T03:35:34.544Z,40.60
2018-12-27T03:36:34.525Z,42.30
2018-12-27T03:37:34.508Z,42.00
2018-12-27T03:38:34.490Z,39.30
2018-12-27T03:39:34.473Z,41.80
2018-12-27T03:40:34.455Z,41.20
2018-12-27T03:41:34.441Z,41.10
2018-12-27T03:42:34.427Z,41.50
2018-12-27T03:43:34.405Z,38.50
2018-12-27T03:44:34.388Z,38.50
2018-12-27T03:45:34.371Z,41.40
2018-12-27T03:46:34.354Z,41.50
2018-12-27T03:47:34.337Z,39.70
2018-12-27T03:48:34.320Z,41.40
2018-12-27T03:49:34.301Z,38.60
2018-12-27T03:50:34.286Z,41.20
2018-12-27T03:51:34.265Z,39.70
2018-12-27T03:52:34.251Z,41.30
2018-12-27T03:53:34.243Z,39.70
2018-12-27T03:54:34.216Z,41.70
2018-12-27T03:55:34.198Z,42.90
2018-12-27T03:56:34.337Z,41.80
2018-12-27T03:57:34.164Z,39.80
2018-12-27T03:58:34.149Z,40.10
2018-12-27T03:59:34.129Z,38.80
2018-12-27T04:00:34.113Z,41.30
2018-12-27T04:01:34.097Z,42.60
2018-12-27T04:02:34.086Z,40.70
2018-12-27T04:03:34.145Z,41.30
2018-12-27T04:04:34.048Z,42.30
2018-12-27T04:05:34.031Z,42.60
2018-12-27T04:06:34.017Z,43.60
2018-12-27T04:07:33.993Z,45.50
2018-12-27T04:08:33.977Z,44.50
2018-12-27T04:09:33.960Z,45.10
2018-12-27T04:10:33.941Z,45.50
2018-12-27T04:11:33.924Z,45.80
2018-12-27T04:12:33.905Z,48.30
2018-12-27T04:13:33.889Z,43.50
2018-12-27T04:14:33.872Z,48.00
2018-12-27T04:15:33.856Z,44.90
2018-12-27T04:16:33.836Z,43.70
2018-12-27T04:17:33.819Z,43.80
2018-12-27T04:18:33.803Z,45.40
2018-12-27T04:19:33.788Z,45.30
2018-12-27T04:20:33.886Z,45.50
2018-12-27T04:21:33.754Z,46.60
2018-12-27T04:22:33.740Z,50.10
2018-12-27T04:23:33.716Z,46.70
2018-12-27T04:24:33.699Z,48.70
2018-12-27T04:25:33.683Z,47.20
2018-12-27T04:26:33.665Z,49.40
2018-12-27T04:27:33.645Z,46.80
2018-12-27T04:28:33.628Z,45.10
2018-12-27T04:29:33.614Z,44.10
2018-12-27T04:30:33.600Z,42.10
2018-12-27T04:31:33.579Z,45.60
2018-12-27T04:32:33.558Z,46.60
2018-12-27T04:33:33.543Z,49.00
2018-12-27T04:34:33.525Z,46.80
2018-12-27T04:35:33.507Z,46.30
2018-12-27T04:36:33.497Z,44.60
2018-12-27T04:37:33.473Z,46.10
2018-12-27T04:38:33.457Z,46.80
2018-12-27T04:39:33.438Z,44.50
2018-12-27T04:40:33.421Z,48.40
2018-12-27T04:41:33.403Z,44.30
2018-12-27T04:42:33.387Z,45.10
2018-12-27T04:43:33.367Z,46.20
2018-12-27T04:44:33.351Z,45.70
2018-12-27T04:45:33.337Z,45.00
2018-12-27T04:46:33.315Z,46.10
2018-12-27T04:47:33.296Z,50.70
2018-12-27T04:48:33.293Z,48.40
2018-12-27T04:49:33.263Z,46.30
2018-12-27T04:50:33.245Z,45.00
2018-12-27T04:51:33.229Z,46.30
2018-12-27T04:52:33.211Z,42.60
2018-12-27T04:53:33.192Z,48.10
2018-12-27T04:54:33.176Z,43.50
2018-12-27T04:55:33.156Z,46.00
2018-12-27T04:56:33.142Z,45.00
2018-12-27T04:57:33.125Z,49.30
2018-12-27T04:58:33.104Z,48.70
2018-12-27T04:59:33.161Z,47.60
2018-12-27T05:00:33.070Z,50.80
2018-12-27T05:01:33.055Z,48.20
2018-12-27T05:02:33.046Z,48.10
2018-12-27T05:03:33.024Z,49.70
2018-12-27T05:04:33.012Z,48.30
2018-12-27T05:05:32.982Z,49.30
2018-12-27T05:06:32.967Z,47.20
2018-12-27T05:07:32.950Z,45.20
2018-12-27T05:08:32.928Z,42.70
2018-12-27T05:09:32.911Z,45.60
2018-12-27T05:10:32.898Z,49.10
2018-12-27T05:11:32.879Z,47.50
2018-12-27T05:12:32.858Z,46.50
2018-12-27T05:13:32.843Z,41.70
2018-12-27T05:14:32.824Z,45.60
2018-12-27T05:15:32.809Z,46.30
2018-12-27T05:16:32.805Z,43.40
2018-12-27T05:17:32.773Z,46.00
2018-12-27T05:18:32.754Z,44.30
2018-12-27T05:19:32.736Z,42.30
2018-12-27T05:20:32.719Z,46.70
2018-12-27T05:21:32.701Z,42.60
2018-12-27T05:22:32.683Z,43.80
2018-12-27T05:23:32.672Z,44.00
2018-12-27T05:24:32.648Z,45.90
2018-12-27T05:25:32.637Z,43.30
2018-12-27T05:26:32.616Z,45.50
2018-12-27T05:27:32.599Z,42.90
2018-12-27T05:28:32.582Z,41.00
2018-12-27T05:29:32.563Z,41.70
2018-12-27T05:30:32.549Z,42.20
2018-12-27T05:31:32.527Z,43.40
2018-12-27T05:32:32.510Z,41.30
2018-12-27T05:33:32.492Z,41.70
2018-12-27T05:34:32.473Z,43.40
2018-12-27T05:35:32.457Z,41.30
2018-12-27T05:36:32.440Z,44.70
2018-12-27T05:37:32.423Z,41.90
2018-12-27T05:38:32.404Z,37.80
2018-12-27T05:39:32.387Z,44.40
2018-12-27T05:40:32.370Z,43.60
2018-12-27T05:41:32.352Z,46.90
2018-12-27T05:42:32.335Z,47.40
2018-12-27T05:43:32.319Z,45.70
2018-12-27T05:44:32.300Z,44.80
2018-12-27T05:45:32.283Z,48.90
2018-12-27T05:46:32.264Z,44.00
2018-12-27T05:47:32.247Z,45.50
2018-12-27T05:48:32.228Z,46.20
2018-12-27T05:49:32.211Z,44.00
2018-12-27T05:50:32.196Z,50.00
2018-12-27T05:51:32.177Z,46.60
2018-12-27T05:52:32.158Z,47.00
2018-12-27T05:53:32.143Z,47.60
2018-12-27T05:54:32.123Z,47.20
2018-12-27T05:55:34.495Z,44.60
2018-12-27T05:56:32.087Z,49.00
2018-12-27T05:57:32.073Z,43.60
2018-12-27T05:58:32.053Z,47.80
2018-12-27T05:59:32.037Z,44.50
2018-12-27T06:00:32.017Z,46.00
2018-12-27T06:01:32.000Z,44.90
2018-12-27T06:02:31.984Z,45.50
2018-12-27T06:03:31.966Z,45.70
2018-12-27T06:04:34.008Z,48.50
2018-12-27T06:05:31.931Z,45.50
2018-12-27T06:06:31.913Z,45.60
2018-12-27T06:07:31.894Z,46.80
2018-12-27T06:08:31.876Z,48.40
2018-12-27T06:09:31.862Z,45.30
2018-12-27T06:10:31.844Z,43.80
2018-12-27T06:11:31.826Z,43.90
2018-12-27T06:12:31.808Z,44.10
2018-12-27T06:13:31.791Z,48.00
2018-12-27T06:14:31.773Z,46.80
2018-12-27T06:15:31.757Z,49.80
2018-12-27T06:16:31.740Z,47.80
2018-12-27T06:17:31.724Z,48.40
2018-12-27T06:18:31.707Z,52.00
2018-12-27T06:19:31.695Z,45.30
2018-12-27T06:20:31.670Z,47.10
2018-12-27T06:21:31.651Z,47.70
2018-12-27T06:22:31.634Z,48.30
2018-12-27T06:23:31.618Z,51.50
2018-12-27T06:24:31.600Z,47.20
2018-12-27T06:25:31.584Z,46.60
2018-12-27T06:26:31.567Z,47.70
2018-12-27T06:27:31.549Z,48.30
2018-12-27T06:28:31.533Z,46.00
2018-12-27T06:29:31.514Z,45.40
2018-12-27T06:30:31.496Z,46.00
2018-12-27T06:31:31.479Z,49.20
2018-12-27T06:32:31.461Z,42.80
2018-12-27T06:33:31.446Z,46.00
2018-12-27T06:34:31.426Z,48.30
2018-12-27T06:35:31.409Z,44.30
2018-12-27T06:36:31.392Z,45.00
2018-12-27T06:37:31.375Z,45.50
2018-12-27T06:38:31.358Z,45.80
2018-12-27T06:39:31.341Z,46.10
2018-12-27T06:40:31.324Z,45.60
2018-12-27T06:41:31.306Z,45.80
2018-12-27T06:42:31.292Z,45.80
2018-12-27T06:43:31.273Z,43.80
2018-12-27T06:44:31.257Z,46.40
2018-12-27T06:45:31.237Z,45.50
2018-12-27T06:46:31.220Z,47.40
2018-12-27T06:47:31.202Z,45.20
2018-12-27T06:48:31.187Z,43.80
2018-12-27T06:49:31.169Z,46.30
2018-12-27T06:50:31.153Z,45.10
2018-12-27T06:51:31.136Z,46.70
2018-12-27T06:52:31.117Z,47.00
2018-12-27T06:53:31.101Z,47.50
2018-12-27T06:54:31.084Z,48.80
2018-12-27T06:55:31.066Z,52.00
2018-12-27T06:56:31.050Z,52.80
2018-12-27T06:57:31.030Z,45.20
2018-12-27T06:58:37.573Z,47.10
2018-12-27T06:59:30.998Z,45.00
2018-12-27T07:00:30.979Z,58.10
2018-12-27T07:01:30.986Z,52.10
2018-12-27T07:02:30.947Z,49.30
2018-12-27T07:03:30.931Z,48.50
2018-12-27T07:04:30.908Z,49.70
2018-12-27T07:05:30.891Z,47.30
2018-12-27T07:06:30.875Z,51.80
2018-12-27T07:07:30.856Z,51.60
2018-12-27T07:08:30.841Z,54.60
2018-12-27T07:09:30.822Z,52.10
2018-12-27T07:10:30.805Z,53.30
2018-12-27T07:11:30.787Z,48.20
2018-12-27T07:12:30.772Z,50.20
2018-12-27T07:13:30.753Z,48.40
2018-12-27T07:14:30.737Z,49.70
2018-12-27T07:15:30.718Z,48.70
2018-12-27T07:16:30.702Z,49.00
2018-12-27T07:17:30.684Z,51.10
2018-12-27T07:18:30.667Z,51.30
2018-12-27T07:19:30.650Z,51.10
2018-12-27T07:20:30.632Z,52.10
2018-12-27T07:21:30.613Z,54.50
2018-12-27T07:22:30.599Z,49.80
2018-12-27T07:23:30.580Z,51.00
2018-12-27T07:24:30.567Z,50.40
2018-12-27T07:25:30.548Z,47.30
2018-12-27T07:26:30.531Z,46.10
2018-12-27T07:27:30.514Z,49.50
2018-12-27T07:28:30.497Z,50.70
2018-12-27T07:29:30.478Z,48.10
2018-12-27T07:30:30.463Z,45.00
2018-12-27T07:31:30.445Z,47.00
2018-12-27T07:32:30.428Z,46.90
2018-12-27T07:33:30.409Z,44.30
2018-12-27T07:34:30.392Z,49.10
2018-12-27T07:35:30.376Z,50.40
2018-12-27T07:36:30.357Z,50.60
2018-12-27T07:37:30.341Z,48.30
2018-12-27T07:38:30.326Z,48.60
2018-12-27T07:39:30.306Z,46.60
2018-12-27T07:40:30.289Z,48.70
2018-12-27T07:41:30.273Z,43.40
2018-12-27T07:42:30.255Z,46.70
2018-12-27T07:43:30.239Z,47.20
2018-12-27T07:44:30.222Z,48.40
2018-12-27T07:45:30.203Z,43.50
2018-12-27T07:46:30.220Z,45.70
2018-12-27T07:47:30.170Z,49.50
2018-12-27T07:48:30.153Z,46.80
2018-12-27T07:49:30.136Z,43.90
2018-12-27T07:50:30.117Z,47.70
2018-12-27T07:51:30.101Z,48.30
2018-12-27T07:52:30.084Z,44.70
2018-12-27T07:53:30.067Z,46.00
2018-12-27T07:54:30.052Z,43.90
2018-12-27T07:55:30.032Z,45.50
2018-12-27T07:56:30.016Z,45.80
2018-12-27T07:57:29.999Z,43.60
2018-12-27T07:58:29.981Z,46.40
2018-12-27T07:59:29.962Z,46.40
2018-12-27T08:00:29.946Z,41.60
2018-12-27T08:01:29.929Z,45.90
2018-12-27T08:02:29.910Z,41.80
2018-12-27T08:03:29.896Z,44.00
2018-12-27T08:04:29.877Z,47.00
2018-12-27T08:05:29.862Z,47.70
2018-12-27T08:06:29.847Z,45.60
2018-12-27T08:07:29.828Z,46.00
2018-12-27T08:08:29.809Z,47.60
2018-12-27T08:09:29.794Z,45.50
2018-12-27T08:10:29.776Z,45.90
2018-12-27T08:11:29.756Z,45.20
2018-12-27T08:12:29.739Z,47.80
2018-12-27T08:13:29.722Z,48.80
2018-12-27T08:14:29.707Z,45.60
2018-12-27T08:15:29.687Z,44.90
2018-12-27T08:16:29.675Z,46.80
2018-12-27T08:17:29.652Z,43.90
2018-12-27T08:18:29.637Z,45.40
2018-12-27T08:19:29.621Z,46.40
2018-12-27T08:20:29.603Z,47.50
2018-12-27T08:21:29.588Z,47.00
2018-12-27T08:22:29.574Z,45.40
2018-12-27T08:23:29.554Z,46.90
2018-12-27T08:24:29.534Z,42.20
2018-12-27T08:25:29.517Z,44.40
2018-12-27T08:26:29.504Z,42.40
2018-12-27T08:27:29.482Z,45.20
2018-12-27T08:28:29.464Z,43.10
2018-12-27T08:29:29.449Z,43.30
2018-12-27T08:30:29.432Z,42.20
2018-12-27T08:31:29.414Z,42.40
2018-12-27T08:32:29.395Z,47.10
2018-12-27T08:33:29.381Z,46.10
2018-12-27T08:34:29.364Z,42.30
2018-12-27T08:35:29.347Z,45.60
2018-12-27T08:36:29.331Z,42.60
2018-12-27T08:37:29.312Z,39.80
2018-12-27T08:38:29.298Z,41.00
2018-12-27T08:39:29.278Z,41.70
2018-12-27T08:40:29.262Z,39.10
2018-12-27T08:41:29.246Z,42.30
2018-12-27T08:42:29.227Z,38.50
2018-12-27T08:43:29.215Z,39.90
2018-12-27T08:44:29.193Z,39.90
2018-12-27T08:45:29.177Z,38.70
2018-12-27T08:46:29.163Z,37.30
2018-12-27T08:47:29.142Z,37.60
2018-12-27T08:48:29.125Z,36.80
2018-12-27T08:49:29.108Z,37.00
2018-12-27T08:50:29.090Z,42.10
2018-12-27T08:51:29.072Z,39.60
2018-12-27T08:52:29.056Z,35.70
2018-12-27T08:53:29.038Z,38.30
2018-12-27T08:54:29.023Z,41.10
2018-12-27T08:55:29.004Z,37.60
2018-12-27T08:56:28.988Z,37.90
2018-12-27T08:57:28.974Z,34.60
2018-12-27T08:58:28.959Z,35.80
2018-12-27T08:59:28.940Z,39.80
2018-12-27T09:00:28.927Z,36.50
2018-12-27T09:01:28.904Z,34.80
2018-12-27T09:02:28.887Z,34.20
2018-12-27T09:03:28.870Z,34.80
2018-12-27T09:04:28.853Z,33.90
2018-12-27T09:05:28.838Z,35.70
2018-12-27T09:06:28.819Z,34.70
2018-12-27T09:07:28.803Z,36.70
2018-12-27T09:08:28.814Z,37.00
2018-12-27T09:09:28.768Z,36.40
2018-12-27T09:10:28.749Z,34.50
2018-12-27T09:11:28.733Z,34.30
2018-12-27T09:12:28.718Z,36.20
2018-12-27T09:13:28.700Z,31.90
2018-12-27T09:14:28.683Z,33.00
2018-12-27T09:15:28.664Z,34.60
2018-12-27T09:16:28.648Z,35.00
2018-12-27T09:17:28.636Z,35.30
2018-12-27T09:18:28.614Z,35.40
2018-12-27T09:19:28.597Z,33.10
2018-12-27T09:20:28.582Z,34.20
2018-12-27T09:21:28.563Z,35.00
2018-12-27T09:22:28.547Z,34.20
2018-12-27T09:23:28.530Z,36.10
2018-12-27T09:24:28.512Z,34.40
2018-12-27T09:25:28.496Z,35.30
2018-12-27T09:26:28.479Z,34.90
2018-12-27T09:27:28.463Z,35.60
2018-12-27T09:28:28.444Z,33.00
2018-12-27T09:29:28.430Z,32.40
2018-12-27T09:30:28.412Z,35.70
2018-12-27T09:31:28.395Z,33.30
2018-12-27T09:32:28.378Z,33.10
2018-12-27T09:33:28.363Z,32.10
2018-12-27T09:34:28.344Z,34.90
2018-12-27T09:35:28.326Z,36.40
2018-12-27T09:36:28.310Z,34.50
2018-12-27T09:37:28.294Z,33.50
2018-12-27T09:38:28.278Z,31.90
2018-12-27T09:39:28.262Z,32.70
2018-12-27T09:40:28.245Z,32.90
2018-12-27T09:41:28.227Z,33.30
2018-12-27T09:42:28.211Z,32.10
2018-12-27T09:43:28.193Z,32.90
2018-12-27T09:44:28.176Z,32.20
2018-12-27T09:45:28.159Z,33.10
2018-12-27T09:46:28.144Z,34.30
2018-12-27T09:47:28.126Z,35.50
2018-12-27T09:48:28.109Z,32.60
2018-12-27T09:49:28.096Z,32.30
2018-12-27T09:50:28.076Z,33.90
2018-12-27T09:51:28.059Z,31.80
2018-12-27T09:52:28.042Z,32.60
2018-12-27T09:53:28.027Z,32.60
2018-12-27T09:54:28.010Z,31.80
2018-12-27T09:55:27.991Z,30.50
2018-12-27T09:56:27.975Z,31.10
2018-12-27T09:57:27.959Z,32.40
2018-12-27T09:58:27.943Z,30.60
2018-12-27T09:59:27.925Z,31.90
2018-12-27T10:00:27.909Z,29.90
2018-12-27T10:01:27.894Z,32.00
2018-12-27T10:02:27.878Z,30.90
2018-12-27T10:03:27.859Z,31.40
2018-12-27T10:04:27.842Z,32.40
2018-12-27T10:05:33.724Z,31.90
2018-12-27T10:06:27.809Z,31.00
2018-12-27T10:07:27.793Z,27.50
2018-12-27T10:08:27.775Z,29.80
2018-12-27T10:09:27.759Z,32.80
2018-12-27T10:10:27.741Z,32.30
2018-12-27T10:11:27.725Z,32.00
2018-12-27T10:12:27.711Z,31.50
2018-12-27T10:13:27.693Z,30.90
2018-12-27T10:14:27.676Z,30.90
2018-12-27T10:15:27.657Z,31.50
2018-12-27T10:16:27.647Z,31.60
2018-12-27T10:17:27.627Z,33.50
2018-12-27T10:18:27.610Z,30.80
2018-12-27T10:19:27.592Z,32.50
2018-12-27T10:20:27.580Z,33.60
2018-12-27T10:21:27.563Z,34.90
2018-12-27T10:22:27.543Z,35.00
2018-12-27T10:23:27.528Z,35.30
2018-12-27T10:24:27.512Z,37.60
2018-12-27T10:25:27.493Z,34.90
2018-12-27T10:26:27.519Z,35.50
2018-12-27T10:27:27.460Z,33.70
2018-12-27T10:28:27.448Z,31.80
2018-12-27T10:29:28.057Z,32.10
2018-12-27T10:30:27.412Z,32.10
2018-12-27T10:31:27.396Z,28.60
2018-12-27T10:32:27.378Z,28.20
2018-12-27T10:33:27.363Z,30.20
2018-12-27T10:34:27.344Z,28.40
2018-12-27T10:35:27.330Z,29.30
2018-12-27T10:36:27.314Z,30.40
2018-12-27T10:37:27.295Z,30.00
2018-12-27T10:38:27.282Z,30.20
2018-12-27T10:39:27.263Z,28.50
2018-12-27T10:40:27.246Z,30.10
2018-12-27T10:41:27.230Z,29.10
2018-12-27T10:42:27.212Z,29.50
2018-12-27T10:43:27.196Z,30.60
2018-12-27T10:44:27.180Z,29.00
2018-12-27T10:45:27.165Z,30.00
2018-12-27T10:46:27.149Z,29.70
2018-12-27T10:47:27.131Z,29.20
2018-12-27T10:48:27.114Z,28.10
2018-12-27T10:49:27.098Z,30.20
2018-12-27T10:50:27.082Z,29.90
2018-12-27T10:51:27.065Z,28.20
2018-12-27T10:52:27.051Z,28.80
2018-12-27T10:53:27.033Z,27.50
2018-12-27T10:54:27.015Z,29.80
2018-12-27T10:55:27.000Z,28.90
2018-12-27T10:56:26.987Z,27.10
2018-12-27T10:57:26.968Z,25.50
2018-12-27T10:58:26.951Z,27.10
2018-12-27T10:59:26.934Z,28.80
2018-12-27T11:00:26.919Z,26.70
2018-12-27T11:01:26.902Z,26.70
2018-12-27T11:02:26.888Z,25.90
2018-12-27T11:03:30.574Z,25.20
2018-12-27T11:04:26.853Z,28.10
2018-12-27T11:05:26.841Z,24.50
2018-12-27T11:06:26.823Z,23.60
2018-12-27T11:07:26.805Z,24.70
2018-12-27T11:08:26.787Z,24.80
2018-12-27T11:09:26.771Z,25.70
2018-12-27T11:10:26.758Z,25.70
2018-12-27T11:11:26.739Z,26.90
2018-12-27T11:12:26.725Z,27.60
2018-12-27T11:13:26.709Z,24.70
2018-12-27T11:14:26.693Z,25.10
2018-12-27T11:15:26.678Z,25.90
2018-12-27T11:16:26.661Z,27.40
2018-12-27T11:17:26.644Z,25.10
2018-12-27T11:18:28.425Z,25.20
2018-12-27T11:19:26.613Z,25.70
2018-12-27T11:20:26.597Z,26.90
2018-12-27T11:21:26.580Z,25.70
2018-12-27T11:22:26.565Z,25.40
2018-12-27T11:23:26.550Z,25.00
2018-12-27T11:24:26.531Z,24.60
2018-12-27T11:25:26.517Z,26.10
2018-12-27T11:26:26.510Z,25.40
2018-12-27T11:27:26.483Z,26.10
2018-12-27T11:28:26.470Z,26.90
2018-12-27T11:29:26.454Z,26.10
2018-12-27T11:30:26.435Z,24.70
2018-12-27T11:31:26.422Z,26.90
2018-12-27T11:32:26.403Z,26.20
2018-12-27T11:33:26.389Z,25.10
2018-12-27T11:34:26.372Z,25.40
2018-12-27T11:35:26.356Z,24.40
2018-12-27T11:36:26.341Z,23.60
2018-12-27T11:37:26.325Z,26.10
2018-12-27T11:38:26.311Z,24.80
2018-12-27T11:39:26.292Z,26.40
2018-12-27T11:40:26.274Z,26.90
2018-12-27T11:41:26.260Z,27.50
2018-12-27T11:42:26.243Z,26.80
2018-12-27T11:43:26.229Z,26.30
2018-12-27T11:44:26.216Z,26.60
2018-12-27T11:45:26.196Z,24.50
2018-12-27T11:46:26.182Z,25.70
2018-12-27T11:47:26.162Z,27.90
2018-12-27T11:48:26.148Z,23.90
2018-12-27T11:49:26.134Z,24.60
2018-12-27T11:50:26.117Z,25.00
2018-12-27T11:51:26.098Z,25.80
2018-12-27T11:52:26.084Z,23.50
2018-12-27T11:53:26.068Z,22.70
2018-12-27T11:54:26.053Z,23.60
2018-12-27T11:55:26.045Z,22.90
2018-12-27T11:56:26.021Z,23.40
2018-12-27T11:57:26.006Z,25.10
2018-12-27T11:58:25.989Z,22.10
2018-12-27T11:59:25.971Z,22.60
2018-12-27T12:00:25.958Z,23.90
2018-12-27T12:01:25.947Z,22.10
2018-12-27T12:02:31.108Z,24.30
2018-12-27T12:03:25.913Z,24.80
2018-12-27T12:04:25.895Z,22.90
2018-12-27T12:05:25.880Z,21.00
2018-12-27T12:06:25.863Z,24.00
2018-12-27T12:07:25.848Z,23.10
2018-12-27T12:08:25.831Z,23.20
2018-12-27T12:09:25.817Z,22.40
2018-12-27T12:10:25.804Z,26.50
2018-12-27T12:11:25.783Z,23.20
2018-12-27T12:12:25.771Z,23.10
2018-12-27T12:13:25.754Z,22.60
2018-12-27T12:14:25.740Z,21.50
2018-12-27T12:15:25.727Z,25.90
2018-12-27T12:16:25.705Z,24.30
2018-12-27T12:17:25.694Z,23.70
2018-12-27T12:18:25.675Z,24.50
2018-12-27T12:19:25.659Z,23.20
2018-12-27T12:20:25.644Z,23.90
2018-12-27T12:21:25.629Z,25.20
2018-12-27T12:22:25.613Z,24.00
2018-12-27T12:23:25.596Z,23.10
2018-12-27T12:24:25.594Z,22.50
2018-12-27T12:25:25.567Z,26.10
2018-12-27T12:26:25.550Z,24.30
2018-12-27T12:27:25.534Z,24.60
2018-12-27T12:28:25.520Z,24.30
2018-12-27T12:29:25.526Z,24.70
2018-12-27T12:30:25.487Z,24.80
2018-12-27T12:31:25.471Z,25.00
2018-12-27T12:32:25.456Z,24.90
2018-12-27T12:33:25.439Z,25.80
2018-12-27T12:34:25.452Z,26.30
2018-12-27T12:35:25.408Z,23.60
2018-12-27T12:36:25.394Z,23.50
2018-12-27T12:37:25.377Z,24.90
2018-12-27T12:38:25.361Z,24.30
2018-12-27T12:39:25.362Z,26.30
2018-12-27T12:40:25.332Z,25.10
2018-12-27T12:41:25.316Z,25.60
2018-12-27T12:42:33.043Z,25.80
2018-12-27T12:43:25.283Z,26.00
2018-12-27T12:44:25.269Z,24.20
2018-12-27T12:45:25.255Z,24.10
2018-12-27T12:46:25.238Z,26.90
2018-12-27T12:47:25.223Z,23.40
2018-12-27T12:48:25.208Z,26.10
2018-12-27T12:49:25.192Z,25.10
2018-12-27T12:50:25.176Z,25.10
2018-12-27T12:51:25.163Z,26.10
2018-12-27T12:52:25.145Z,23.90